Impacts TAF Board INFO
FOR SITUATIONAL AWARENESS. NOT TO BE USED FOR FLIGHT PLANNING PURPOSES.
IDs:

KPIT - Pittsburgh Intl, PA, US

Issued at 1728 UTC 27 Apr 2017
Updated at 2042 UTC 27 Apr 2017
Potential Impact None Slight Moderate High
Time1951Z 27/21Z 27/22Z 27/23Z 28/00Z 28/01Z 28/02Z 28/03Z 28/04Z 28/05Z 28/06Z 28/07Z 28/08Z 28/09Z>>
Type OBS PRVL
  [TEMP]  
PRVL
  [TEMP]  
PRVL PRVL PRVL PRVL PRVL PRVL PRVL PRVL PRVL PRVL PRVL
VIS 10 >6
  [5]  
>6
  [5]  
>6 >6 >6 >6 >6 >6 >6 >6 >6 >6 >6
CIG 75 40
  [25]  
40
  [25]  
40 50 50 50 50 50 50 50 25 25 25
Cover OVC BKN
  [BKN]  
BKN
  [BKN]  
BKN BKN BKN BKN BKN BKN BKN BKN BKN BKN BKN
FltCat VFR VFR
  [MVFR]  
VFR
  [MVFR]  
VFR VFR VFR VFR VFR VFR VFR VFR MVFR MVFR MVFR
WX -- -SHRA VCTS
  [-TSRA]  
-SHRA VCTS
  [-TSRA]  
-SHRA VCTS -- -- -- -- -- -- -- -- -- --
WDir 230 180
[220]
180
[220]
180 210 210 210 210 210 210 210 260 260 260
WSpd 13 9
  [10]  
9
  [10]  
9 8 8 8 8 8 8 8 4 4 4
WGst 31 18
  [30]  
18
  [30]  
18 -- -- -- -- -- -- -- -- -- --

Raw TAF
KPIT 271728Z 2718/2824 19012G18KT P6SM FEW040 BKN200
  FM272000 18009G18KT P6SM -SHRA VCTS BKN040CB
  TEMPO 2721/2723 22010G30KT 5SM -TSRA BKN025CB
  FM280000 21008KT P6SM BKN050
  FM280700 26004KT P6SM BKN025
  FM281300 20004KT P6SM SCT025


Raw METAR
KPIT 271951Z 23013G31KT 10SM FEW045 OVC075 26/12 A2966 RMK AO2 PK WND 23031/1948 SLP041 T02610117 $
KPIT 271851Z 21017G22KT 10SM SCT070 BKN170 OVC250 27/11 A2964 RMK AO2 SLP035 T02720106 $
KPIT 271751Z 18011G17KT 10SM FEW040 BKN170 BKN250 26/13 A2966 RMK AO2 SLP042 T02610128 10267 20172 55010 $

METAR Board
Radar Display
Forecast Discussion

FOR SITUATIONAL AWARENESS. NOT TO BE USED FOR FLIGHT PLANNING PURPOSES.

Page loaded:  20:42 UTC  |   01:42 PM Pacific  |   02:42 PM Mountain  |   03:42 PM Central  |   04:42 PM Eastern

 

ADVISORIES

FORECASTS

FORECASTS

OBSERVATIONS

USER TOOLS

ABOUT US